sensor_id;sensor_type;location;lat;lon;timestamp;P1;durP1;ratioP1;P2;durP2;ratioP2
59442;SDS011;45247;47.466;19.004;2023-05-07T00:01:59;7.93;;;5.75;;
59442;SDS011;45247;47.466;19.004;2023-05-07T00:04:27;6.13;;;5.15;;
59442;SDS011;45247;47.466;19.004;2023-05-07T00:07:02;6.55;;;4.70;;
59442;SDS011;45247;47.466;19.004;2023-05-07T00:09:30;6.93;;;5.13;;
59442;SDS011;45247;47.466;19.004;2023-05-07T00:11:58;6.32;;;5.07;;
59442;SDS011;45247;47.466;19.004;2023-05-07T00:14:28;5.57;;;4.97;;
59442;SDS011;45247;47.466;19.004;2023-05-07T00:16:56;7.68;;;5.32;;
59442;SDS011;45247;47.466;19.004;2023-05-07T00:19:24;8.10;;;5.72;;
59442;SDS011;45247;47.466;19.004;2023-05-07T00:21:52;7.40;;;5.95;;
59442;SDS011;45247;47.466;19.004;2023-05-07T00:24:22;8.10;;;5.72;;
59442;SDS011;45247;47.466;19.004;2023-05-07T00:26:50;8.57;;;6.03;;
59442;SDS011;45247;47.466;19.004;2023-05-07T00:29:19;7.65;;;5.75;;
59442;SDS011;45247;47.466;19.004;2023-05-07T00:31:50;8.85;;;5.70;;
59442;SDS011;45247;47.466;19.004;2023-05-07T00:34:20;8.27;;;5.25;;
59442;SDS011;45247;47.466;19.004;2023-05-07T00:36:48;7.43;;;5.47;;
59442;SDS011;45247;47.466;19.004;2023-05-07T00:39:16;6.40;;;5.57;;
59442;SDS011;45247;47.466;19.004;2023-05-07T00:41:45;6.25;;;5.38;;
59442;SDS011;45247;47.466;19.004;2023-05-07T00:44:13;8.77;;;5.60;;
59442;SDS011;45247;47.466;19.004;2023-05-07T00:46:41;6.80;;;5.72;;
59442;SDS011;45247;47.466;19.004;2023-05-07T00:49:12;6.55;;;5.55;;
59442;SDS011;45247;47.466;19.004;2023-05-07T00:51:40;5.78;;;5.20;;
59442;SDS011;45247;47.466;19.004;2023-05-07T00:54:09;10.25;;;5.28;;
59442;SDS011;45247;47.466;19.004;2023-05-07T00:56:38;6.93;;;5.72;;
59442;SDS011;45247;47.466;19.004;2023-05-07T00:59:06;5.03;;;4.38;;
59442;SDS011;45247;47.466;19.004;2023-05-07T01:01:35;5.18;;;4.45;;
59442;SDS011;45247;47.466;19.004;2023-05-07T01:04:03;5.32;;;4.70;;
59442;SDS011;45247;47.466;19.004;2023-05-07T01:06:33;5.10;;;4.00;;
59442;SDS011;45247;47.466;19.004;2023-05-07T01:09:02;6.38;;;4.70;;
59442;SDS011;45247;47.466;19.004;2023-05-07T01:11:32;6.15;;;4.03;;
59442;SDS011;45247;47.466;19.004;2023-05-07T01:14:00;4.80;;;4.28;;
59442;SDS011;45247;47.466;19.004;2023-05-07T01:16:29;4.85;;;3.63;;
59442;SDS011;45247;47.466;19.004;2023-05-07T01:18:57;5.63;;;4.10;;
59442;SDS011;45247;47.466;19.004;2023-05-07T01:21:26;6.72;;;4.10;;
59442;SDS011;45247;47.466;19.004;2023-05-07T01:23:55;4.55;;;3.90;;
59442;SDS011;45247;47.466;19.004;2023-05-07T01:26:25;5.20;;;4.60;;
59442;SDS011;45247;47.466;19.004;2023-05-07T01:28:53;5.93;;;4.93;;
59442;SDS011;45247;47.466;19.004;2023-05-07T01:31:21;5.70;;;5.00;;
59442;SDS011;45247;47.466;19.004;2023-05-07T01:33:51;5.50;;;4.32;;
59442;SDS011;45247;47.466;19.004;2023-05-07T01:36:20;5.25;;;4.18;;
59442;SDS011;45247;47.466;19.004;2023-05-07T01:38:52;3.70;;;3.30;;
59442;SDS011;45247;47.466;19.004;2023-05-07T01:41:22;3.88;;;2.97;;
59442;SDS011;45247;47.466;19.004;2023-05-07T01:43:50;4.10;;;3.30;;
59442;SDS011;45247;47.466;19.004;2023-05-07T01:46:19;3.40;;;2.83;;
59442;SDS011;45247;47.466;19.004;2023-05-07T01:48:48;3.00;;;2.60;;
59442;SDS011;45247;47.466;19.004;2023-05-07T01:51:19;3.85;;;3.00;;
59442;SDS011;45247;47.466;19.004;2023-05-07T01:53:48;4.50;;;3.75;;
59442;SDS011;45247;47.466;19.004;2023-05-07T01:56:17;4.53;;;3.55;;
59442;SDS011;45247;47.466;19.004;2023-05-07T01:58:47;5.25;;;4.75;;
59442;SDS011;45247;47.466;19.004;2023-05-07T02:01:17;5.40;;;4.53;;
59442;SDS011;45247;47.466;19.004;2023-05-07T02:03:46;5.20;;;3.90;;
59442;SDS011;45247;47.466;19.004;2023-05-07T02:06:14;5.50;;;4.78;;
59442;SDS011;45247;47.466;19.004;2023-05-07T02:08:42;5.05;;;4.53;;
59442;SDS011;45247;47.466;19.004;2023-05-07T02:11:10;5.38;;;4.80;;
59442;SDS011;45247;47.466;19.004;2023-05-07T02:13:39;5.97;;;5.10;;
59442;SDS011;45247;47.466;19.004;2023-05-07T02:16:08;5.47;;;4.90;;
59442;SDS011;45247;47.466;19.004;2023-05-07T02:18:37;7.10;;;5.50;;
59442;SDS011;45247;47.466;19.004;2023-05-07T02:21:05;6.40;;;5.55;;
59442;SDS011;45247;47.466;19.004;2023-05-07T02:23:33;7.03;;;5.45;;
59442;SDS011;45247;47.466;19.004;2023-05-07T02:26:01;6.13;;;5.53;;
59442;SDS011;45247;47.466;19.004;2023-05-07T02:28:32;7.93;;;5.85;;
59442;SDS011;45247;47.466;19.004;2023-05-07T02:31:02;7.20;;;5.65;;
59442;SDS011;45247;47.466;19.004;2023-05-07T02:33:32;7.43;;;5.60;;
59442;SDS011;45247;47.466;19.004;2023-05-07T02:36:07;4.25;;;3.85;;
59442;SDS011;45247;47.466;19.004;2023-05-07T02:38:36;6.45;;;3.63;;
59442;SDS011;45247;47.466;19.004;2023-05-07T02:41:04;5.18;;;3.55;;
59442;SDS011;45247;47.466;19.004;2023-05-07T02:43:32;4.10;;;3.60;;
59442;SDS011;45247;47.466;19.004;2023-05-07T02:46:01;4.63;;;4.07;;
59442;SDS011;45247;47.466;19.004;2023-05-07T02:48:31;9.48;;;4.18;;
59442;SDS011;45247;47.466;19.004;2023-05-07T02:51:00;4.78;;;3.65;;
59442;SDS011;45247;47.466;19.004;2023-05-07T02:53:28;3.80;;;3.40;;
59442;SDS011;45247;47.466;19.004;2023-05-07T02:55:57;4.00;;;3.15;;
59442;SDS011;45247;47.466;19.004;2023-05-07T02:58:26;5.57;;;3.60;;
59442;SDS011;45247;47.466;19.004;2023-05-07T03:00:54;4.05;;;3.65;;
59442;SDS011;45247;47.466;19.004;2023-05-07T03:03:22;5.25;;;3.75;;
59442;SDS011;45247;47.466;19.004;2023-05-07T03:05:52;4.57;;;3.38;;
59442;SDS011;45247;47.466;19.004;2023-05-07T03:08:20;3.75;;;3.20;;
59442;SDS011;45247;47.466;19.004;2023-05-07T03:10:48;3.55;;;3.08;;
59442;SDS011;45247;47.466;19.004;2023-05-07T03:13:16;4.32;;;3.60;;
59442;SDS011;45247;47.466;19.004;2023-05-07T03:15:44;3.33;;;2.88;;
59442;SDS011;45247;47.466;19.004;2023-05-07T03:18:12;4.57;;;3.28;;
59442;SDS011;45247;47.466;19.004;2023-05-07T03:20:41;4.03;;;2.80;;
59442;SDS011;45247;47.466;19.004;2023-05-07T03:23:10;3.58;;;3.10;;
59442;SDS011;45247;47.466;19.004;2023-05-07T03:25:38;3.92;;;3.30;;
59442;SDS011;45247;47.466;19.004;2023-05-07T03:28:06;4.05;;;3.13;;
59442;SDS011;45247;47.466;19.004;2023-05-07T03:30:35;4.55;;;3.60;;
59442;SDS011;45247;47.466;19.004;2023-05-07T03:33:03;4.07;;;3.28;;
59442;SDS011;45247;47.466;19.004;2023-05-07T03:35:31;4.22;;;3.35;;
59442;SDS011;45247;47.466;19.004;2023-05-07T03:37:59;3.70;;;3.10;;
59442;SDS011;45247;47.466;19.004;2023-05-07T03:40:29;7.03;;;3.80;;
59442;SDS011;45247;47.466;19.004;2023-05-07T03:42:57;4.28;;;3.72;;
59442;SDS011;45247;47.466;19.004;2023-05-07T03:45:27;4.20;;;3.65;;
59442;SDS011;45247;47.466;19.004;2023-05-07T03:47:55;4.55;;;3.42;;
59442;SDS011;45247;47.466;19.004;2023-05-07T03:50:23;6.78;;;4.30;;
59442;SDS011;45247;47.466;19.004;2023-05-07T03:52:51;6.18;;;3.70;;
59442;SDS011;45247;47.466;19.004;2023-05-07T03:55:19;5.28;;;4.00;;
59442;SDS011;45247;47.466;19.004;2023-05-07T03:57:49;5.78;;;3.90;;
59442;SDS011;45247;47.466;19.004;2023-05-07T04:00:17;5.15;;;4.28;;
59442;SDS011;45247;47.466;19.004;2023-05-07T04:02:46;5.55;;;3.85;;
59442;SDS011;45247;47.466;19.004;2023-05-07T04:05:15;4.70;;;3.70;;
59442;SDS011;45247;47.466;19.004;2023-05-07T04:07:43;5.43;;;4.10;;
59442;SDS011;45247;47.466;19.004;2023-05-07T04:10:11;7.07;;;3.90;;
59442;SDS011;45247;47.466;19.004;2023-05-07T04:12:39;6.65;;;3.78;;
59442;SDS011;45247;47.466;19.004;2023-05-07T04:15:09;5.70;;;3.83;;
59442;SDS011;45247;47.466;19.004;2023-05-07T04:17:38;5.15;;;3.95;;
59442;SDS011;45247;47.466;19.004;2023-05-07T04:20:06;8.85;;;3.95;;
59442;SDS011;45247;47.466;19.004;2023-05-07T04:22:37;4.72;;;3.83;;
59442;SDS011;45247;47.466;19.004;2023-05-07T04:25:05;6.57;;;3.80;;
59442;SDS011;45247;47.466;19.004;2023-05-07T04:27:35;4.28;;;3.63;;
59442;SDS011;45247;47.466;19.004;2023-05-07T04:30:04;4.13;;;3.65;;
59442;SDS011;45247;47.466;19.004;2023-05-07T04:32:35;4.32;;;3.40;;
59442;SDS011;45247;47.466;19.004;2023-05-07T04:35:04;4.35;;;3.30;;
59442;SDS011;45247;47.466;19.004;2023-05-07T04:37:32;3.75;;;3.15;;
59442;SDS011;45247;47.466;19.004;2023-05-07T04:40:01;3.70;;;2.92;;
59442;SDS011;45247;47.466;19.004;2023-05-07T04:42:30;4.18;;;2.60;;
59442;SDS011;45247;47.466;19.004;2023-05-07T04:44:58;3.88;;;2.60;;
59442;SDS011;45247;47.466;19.004;2023-05-07T04:47:27;3.35;;;2.63;;
59442;SDS011;45247;47.466;19.004;2023-05-07T04:49:57;16.35;;;2.40;;
59442;SDS011;45247;47.466;19.004;2023-05-07T04:52:25;3.00;;;1.80;;
59442;SDS011;45247;47.466;19.004;2023-05-07T04:54:53;4.30;;;2.88;;
59442;SDS011;45247;47.466;19.004;2023-05-07T04:57:21;4.63;;;2.28;;
59442;SDS011;45247;47.466;19.004;2023-05-07T04:59:49;3.10;;;2.30;;
59442;SDS011;45247;47.466;19.004;2023-05-07T05:02:17;2.65;;;2.13;;
59442;SDS011;45247;47.466;19.004;2023-05-07T05:04:46;4.57;;;2.20;;
59442;SDS011;45247;47.466;19.004;2023-05-07T05:07:15;2.60;;;2.13;;
59442;SDS011;45247;47.466;19.004;2023-05-07T05:09:43;3.00;;;2.05;;
59442;SDS011;45247;47.466;19.004;2023-05-07T05:12:12;2.65;;;2.00;;
59442;SDS011;45247;47.466;19.004;2023-05-07T05:14:40;2.08;;;1.63;;
59442;SDS011;45247;47.466;19.004;2023-05-07T05:17:08;2.45;;;1.83;;
59442;SDS011;45247;47.466;19.004;2023-05-07T05:19:36;3.15;;;1.90;;
59442;SDS011;45247;47.466;19.004;2023-05-07T05:22:04;2.45;;;1.50;;
59442;SDS011;45247;47.466;19.004;2023-05-07T05:24:34;3.10;;;1.77;;
59442;SDS011;45247;47.466;19.004;2023-05-07T05:27:02;3.17;;;1.50;;
59442;SDS011;45247;47.466;19.004;2023-05-07T05:29:30;5.53;;;1.95;;
59442;SDS011;45247;47.466;19.004;2023-05-07T05:32:01;2.53;;;1.70;;
59442;SDS011;45247;47.466;19.004;2023-05-07T05:34:29;3.47;;;1.80;;
59442;SDS011;45247;47.466;19.004;2023-05-07T05:36:59;4.30;;;1.70;;
59442;SDS011;45247;47.466;19.004;2023-05-07T05:39:27;2.70;;;1.77;;
59442;SDS011;45247;47.466;19.004;2023-05-07T05:41:57;4.80;;;1.98;;
59442;SDS011;45247;47.466;19.004;2023-05-07T05:44:25;4.20;;;2.10;;
59442;SDS011;45247;47.466;19.004;2023-05-07T05:46:53;3.63;;;2.13;;
59442;SDS011;45247;47.466;19.004;2023-05-07T05:49:24;2.70;;;1.80;;
59442;SDS011;45247;47.466;19.004;2023-05-07T05:51:52;2.40;;;1.83;;
59442;SDS011;45247;47.466;19.004;2023-05-07T05:54:20;2.40;;;1.88;;
59442;SDS011;45247;47.466;19.004;2023-05-07T05:56:48;2.42;;;1.60;;
59442;SDS011;45247;47.466;19.004;2023-05-07T05:59:18;2.40;;;2.05;;
59442;SDS011;45247;47.466;19.004;2023-05-07T06:01:46;3.05;;;1.88;;
59442;SDS011;45247;47.466;19.004;2023-05-07T06:04:20;2.40;;;1.48;;
59442;SDS011;45247;47.466;19.004;2023-05-07T06:06:48;1.98;;;1.20;;
59442;SDS011;45247;47.466;19.004;2023-05-07T06:09:16;1.83;;;1.50;;
59442;SDS011;45247;47.466;19.004;2023-05-07T06:11:45;2.88;;;1.70;;
59442;SDS011;45247;47.466;19.004;2023-05-07T06:14:13;3.20;;;1.60;;
59442;SDS011;45247;47.466;19.004;2023-05-07T06:16:43;3.30;;;2.10;;
59442;SDS011;45247;47.466;19.004;2023-05-07T06:19:13;2.47;;;1.80;;
59442;SDS011;45247;47.466;19.004;2023-05-07T06:21:45;3.10;;;1.88;;
59442;SDS011;45247;47.466;19.004;2023-05-07T06:24:13;2.53;;;1.75;;
59442;SDS011;45247;47.466;19.004;2023-05-07T06:26:41;2.55;;;2.03;;
59442;SDS011;45247;47.466;19.004;2023-05-07T06:29:09;2.53;;;1.80;;
59442;SDS011;45247;47.466;19.004;2023-05-07T06:31:37;3.05;;;1.42;;
59442;SDS011;45247;47.466;19.004;2023-05-07T06:34:07;2.28;;;1.50;;
59442;SDS011;45247;47.466;19.004;2023-05-07T06:36:35;2.45;;;1.60;;
59442;SDS011;45247;47.466;19.004;2023-05-07T06:39:03;4.65;;;1.50;;
59442;SDS011;45247;47.466;19.004;2023-05-07T06:41:31;1.67;;;1.23;;
59442;SDS011;45247;47.466;19.004;2023-05-07T06:43:59;1.30;;;1.20;;
59442;SDS011;45247;47.466;19.004;2023-05-07T06:46:27;1.77;;;1.10;;
59442;SDS011;45247;47.466;19.004;2023-05-07T06:48:56;1.77;;;0.90;;
59442;SDS011;45247;47.466;19.004;2023-05-07T06:51:26;2.05;;;1.10;;
59442;SDS011;45247;47.466;19.004;2023-05-07T06:53:54;0.80;;;0.80;;
59442;SDS011;45247;47.466;19.004;2023-05-07T06:56:22;1.35;;;1.15;;
59442;SDS011;45247;47.466;19.004;2023-05-07T06:58:50;2.00;;;1.13;;
59442;SDS011;45247;47.466;19.004;2023-05-07T07:01:19;1.30;;;1.10;;
59442;SDS011;45247;47.466;19.004;2023-05-07T07:03:47;2.63;;;1.20;;
59442;SDS011;45247;47.466;19.004;2023-05-07T07:06:15;1.73;;;1.23;;
59442;SDS011;45247;47.466;19.004;2023-05-07T07:08:47;2.05;;;1.23;;
59442;SDS011;45247;47.466;19.004;2023-05-07T07:11:16;1.42;;;1.20;;
59442;SDS011;45247;47.466;19.004;2023-05-07T07:13:44;1.92;;;1.25;;
59442;SDS011;45247;47.466;19.004;2023-05-07T07:16:12;1.83;;;1.30;;
59442;SDS011;45247;47.466;19.004;2023-05-07T07:18:40;2.42;;;1.40;;
59442;SDS011;45247;47.466;19.004;2023-05-07T07:21:09;2.25;;;1.60;;
59442;SDS011;45247;47.466;19.004;2023-05-07T07:23:37;1.77;;;1.50;;
59442;SDS011;45247;47.466;19.004;2023-05-07T07:26:06;1.80;;;1.40;;
59442;SDS011;45247;47.466;19.004;2023-05-07T07:28:36;1.35;;;1.10;;
59442;SDS011;45247;47.466;19.004;2023-05-07T07:31:13;1.60;;;1.15;;
59442;SDS011;45247;47.466;19.004;2023-05-07T07:33:41;0.95;;;0.95;;
59442;SDS011;45247;47.466;19.004;2023-05-07T07:36:10;1.30;;;0.98;;
59442;SDS011;45247;47.466;19.004;2023-05-07T07:38:38;2.03;;;1.10;;
59442;SDS011;45247;47.466;19.004;2023-05-07T07:41:08;3.72;;;1.30;;
59442;SDS011;45247;47.466;19.004;2023-05-07T07:43:36;1.27;;;1.10;;
59442;SDS011;45247;47.466;19.004;2023-05-07T07:46:05;4.55;;;1.52;;
59442;SDS011;45247;47.466;19.004;2023-05-07T07:48:33;1.88;;;1.30;;
59442;SDS011;45247;47.466;19.004;2023-05-07T07:51:01;3.88;;;1.60;;
59442;SDS011;45247;47.466;19.004;2023-05-07T07:53:29;1.92;;;1.30;;
59442;SDS011;45247;47.466;19.004;2023-05-07T07:55:57;4.38;;;1.20;;
59442;SDS011;45247;47.466;19.004;2023-05-07T07:58:26;3.15;;;1.20;;
59442;SDS011;45247;47.466;19.004;2023-05-07T08:00:55;2.47;;;2.10;;
59442;SDS011;45247;47.466;19.004;2023-05-07T08:03:23;7.28;;;2.05;;
59442;SDS011;45247;47.466;19.004;2023-05-07T08:05:51;3.75;;;1.98;;
59442;SDS011;45247;47.466;19.004;2023-05-07T08:08:19;2.80;;;2.22;;
59442;SDS011;45247;47.466;19.004;2023-05-07T08:10:47;3.83;;;2.67;;
59442;SDS011;45247;47.466;19.004;2023-05-07T08:13:17;4.38;;;2.33;;
59442;SDS011;45247;47.466;19.004;2023-05-07T08:15:47;4.93;;;2.38;;
59442;SDS011;45247;47.466;19.004;2023-05-07T08:18:15;3.25;;;2.30;;
59442;SDS011;45247;47.466;19.004;2023-05-07T08:20:43;3.05;;;2.20;;
59442;SDS011;45247;47.466;19.004;2023-05-07T08:23:11;3.80;;;2.50;;
59442;SDS011;45247;47.466;19.004;2023-05-07T08:25:40;3.85;;;2.95;;
59442;SDS011;45247;47.466;19.004;2023-05-07T08:28:08;3.40;;;2.60;;
59442;SDS011;45247;47.466;19.004;2023-05-07T08:30:37;4.75;;;2.92;;
59442;SDS011;45247;47.466;19.004;2023-05-07T08:33:06;4.05;;;2.80;;
59442;SDS011;45247;47.466;19.004;2023-05-07T08:35:36;4.13;;;2.58;;
59442;SDS011;45247;47.466;19.004;2023-05-07T08:38:06;3.65;;;2.60;;
59442;SDS011;45247;47.466;19.004;2023-05-07T08:40:36;3.80;;;2.55;;
59442;SDS011;45247;47.466;19.004;2023-05-07T08:43:07;3.05;;;2.25;;
59442;SDS011;45247;47.466;19.004;2023-05-07T08:45:35;3.90;;;3.30;;
59442;SDS011;45247;47.466;19.004;2023-05-07T08:48:09;4.00;;;3.30;;
59442;SDS011;45247;47.466;19.004;2023-05-07T08:50:42;3.97;;;3.20;;
59442;SDS011;45247;47.466;19.004;2023-05-07T08:53:10;6.30;;;3.70;;
59442;SDS011;45247;47.466;19.004;2023-05-07T08:55:40;5.72;;;3.92;;
59442;SDS011;45247;47.466;19.004;2023-05-07T08:58:08;4.22;;;3.83;;
59442;SDS011;45247;47.466;19.004;2023-05-07T09:00:36;6.68;;;3.80;;
59442;SDS011;45247;47.466;19.004;2023-05-07T09:03:08;4.35;;;3.35;;
59442;SDS011;45247;47.466;19.004;2023-05-07T09:05:39;5.78;;;3.25;;
59442;SDS011;45247;47.466;19.004;2023-05-07T09:08:07;3.60;;;3.08;;
59442;SDS011;45247;47.466;19.004;2023-05-07T09:10:35;3.97;;;3.33;;
59442;SDS011;45247;47.466;19.004;2023-05-07T09:13:03;3.95;;;3.22;;
59442;SDS011;45247;47.466;19.004;2023-05-07T09:15:31;6.22;;;3.22;;
59442;SDS011;45247;47.466;19.004;2023-05-07T09:18:00;5.18;;;2.97;;
59442;SDS011;45247;47.466;19.004;2023-05-07T09:20:31;4.15;;;3.08;;
59442;SDS011;45247;47.466;19.004;2023-05-07T09:23:01;4.90;;;3.28;;
59442;SDS011;45247;47.466;19.004;2023-05-07T09:25:30;4.68;;;3.10;;
59442;SDS011;45247;47.466;19.004;2023-05-07T09:27:59;3.58;;;2.83;;
59442;SDS011;45247;47.466;19.004;2023-05-07T09:30:28;3.30;;;2.38;;
59442;SDS011;45247;47.466;19.004;2023-05-07T09:32:57;3.60;;;2.40;;
59442;SDS011;45247;47.466;19.004;2023-05-07T09:35:27;3.45;;;2.20;;
59442;SDS011;45247;47.466;19.004;2023-05-07T09:37:57;2.55;;;1.98;;
59442;SDS011;45247;47.466;19.004;2023-05-07T09:40:30;4.75;;;1.88;;
59442;SDS011;45247;47.466;19.004;2023-05-07T09:43:08;2.85;;;1.83;;
59442;SDS011;45247;47.466;19.004;2023-05-07T09:45:37;3.08;;;2.00;;
59442;SDS011;45247;47.466;19.004;2023-05-07T09:48:05;3.25;;;2.40;;
59442;SDS011;45247;47.466;19.004;2023-05-07T09:50:35;2.70;;;2.03;;
59442;SDS011;45247;47.466;19.004;2023-05-07T09:53:09;3.65;;;2.70;;
59442;SDS011;45247;47.466;19.004;2023-05-07T09:55:38;3.17;;;2.03;;
59442;SDS011;45247;47.466;19.004;2023-05-07T09:58:09;2.97;;;1.92;;
59442;SDS011;45247;47.466;19.004;2023-05-07T10:00:40;1.90;;;1.70;;
59442;SDS011;45247;47.466;19.004;2023-05-07T10:03:09;2.75;;;1.67;;
59442;SDS011;45247;47.466;19.004;2023-05-07T10:05:39;6.10;;;2.17;;
59442;SDS011;45247;47.466;19.004;2023-05-07T10:08:09;5.13;;;2.13;;
59442;SDS011;45247;47.466;19.004;2023-05-07T10:10:38;4.05;;;1.88;;
59442;SDS011;45247;47.466;19.004;2023-05-07T10:13:07;3.33;;;2.05;;
59442;SDS011;45247;47.466;19.004;2023-05-07T10:15:37;6.95;;;1.80;;
59442;SDS011;45247;47.466;19.004;2023-05-07T10:18:05;5.40;;;2.40;;
59442;SDS011;45247;47.466;19.004;2023-05-07T10:20:35;3.58;;;2.38;;
59442;SDS011;45247;47.466;19.004;2023-05-07T10:23:04;5.80;;;2.47;;
59442;SDS011;45247;47.466;19.004;2023-05-07T10:25:36;3.63;;;2.17;;
59442;SDS011;45247;47.466;19.004;2023-05-07T10:28:05;2.83;;;2.00;;
59442;SDS011;45247;47.466;19.004;2023-05-07T10:30:38;2.25;;;1.98;;
59442;SDS011;45247;47.466;19.004;2023-05-07T10:33:16;3.55;;;2.53;;
59442;SDS011;45247;47.466;19.004;2023-05-07T10:38:16;3.95;;;2.00;;
59442;SDS011;45247;47.466;19.004;2023-05-07T10:40:46;3.33;;;2.33;;
59442;SDS011;45247;47.466;19.004;2023-05-07T10:43:15;3.67;;;3.03;;
59442;SDS011;45247;47.466;19.004;2023-05-07T10:45:43;4.63;;;3.00;;
59442;SDS011;45247;47.466;19.004;2023-05-07T10:48:12;5.68;;;2.80;;
59442;SDS011;45247;47.466;19.004;2023-05-07T10:50:44;4.45;;;2.88;;
59442;SDS011;45247;47.466;19.004;2023-05-07T10:53:23;4.38;;;2.90;;
59442;SDS011;45247;47.466;19.004;2023-05-07T11:01:59;4.32;;;2.30;;
59442;SDS011;45247;47.466;19.004;2023-05-07T11:04:30;3.15;;;1.98;;
59442;SDS011;45247;47.466;19.004;2023-05-07T11:09:58;4.07;;;1.90;;
59442;SDS011;45247;47.466;19.004;2023-05-07T11:18:04;5.25;;;2.22;;
59442;SDS011;45247;47.466;19.004;2023-05-07T11:20:47;2.58;;;1.90;;
59442;SDS011;45247;47.466;19.004;2023-05-07T11:26:43;2.50;;;2.08;;
59442;SDS011;45247;47.466;19.004;2023-05-07T11:29:15;4.22;;;1.60;;
59442;SDS011;45247;47.466;19.004;2023-05-07T11:31:51;2.58;;;1.90;;
59442;SDS011;45247;47.466;19.004;2023-05-07T11:36:48;1.60;;;1.30;;
59442;SDS011;45247;47.466;19.004;2023-05-07T11:39:23;2.35;;;1.75;;
59442;SDS011;45247;47.466;19.004;2023-05-07T11:41:52;1.88;;;1.52;;
59442;SDS011;45247;47.466;19.004;2023-05-07T11:44:22;3.55;;;1.67;;
59442;SDS011;45247;47.466;19.004;2023-05-07T11:46:50;2.80;;;1.90;;
59442;SDS011;45247;47.466;19.004;2023-05-07T11:49:19;2.00;;;1.40;;
59442;SDS011;45247;47.466;19.004;2023-05-07T11:51:47;1.77;;;1.60;;
59442;SDS011;45247;47.466;19.004;2023-05-07T11:54:15;2.40;;;1.60;;
59442;SDS011;45247;47.466;19.004;2023-05-07T11:56:44;3.65;;;1.90;;
59442;SDS011;45247;47.466;19.004;2023-05-07T11:59:18;2.73;;;1.80;;
59442;SDS011;45247;47.466;19.004;2023-05-07T12:01:47;1.77;;;1.55;;
59442;SDS011;45247;47.466;19.004;2023-05-07T12:04:19;3.33;;;1.63;;
59442;SDS011;45247;47.466;19.004;2023-05-07T12:06:48;2.40;;;1.98;;
59442;SDS011;45247;47.466;19.004;2023-05-07T12:09:22;2.50;;;1.65;;
59442;SDS011;45247;47.466;19.004;2023-05-07T12:11:51;2.72;;;1.60;;
59442;SDS011;45247;47.466;19.004;2023-05-07T12:14:19;1.58;;;1.42;;
59442;SDS011;45247;47.466;19.004;2023-05-07T12:16:49;2.33;;;1.50;;
59442;SDS011;45247;47.466;19.004;2023-05-07T12:19:17;3.63;;;1.33;;
59442;SDS011;45247;47.466;19.004;2023-05-07T12:21:46;2.15;;;1.23;;
59442;SDS011;45247;47.466;19.004;2023-05-07T12:24:14;1.75;;;1.33;;
59442;SDS011;45247;47.466;19.004;2023-05-07T12:26:43;2.33;;;1.42;;
59442;SDS011;45247;47.466;19.004;2023-05-07T12:29:11;2.85;;;1.40;;
59442;SDS011;45247;47.466;19.004;2023-05-07T12:31:40;1.60;;;1.20;;
59442;SDS011;45247;47.466;19.004;2023-05-07T12:34:11;2.35;;;1.30;;
59442;SDS011;45247;47.466;19.004;2023-05-07T12:36:40;2.75;;;1.65;;
59442;SDS011;45247;47.466;19.004;2023-05-07T12:39:08;4.18;;;1.63;;
59442;SDS011;45247;47.466;19.004;2023-05-07T12:41:51;3.85;;;1.55;;
59442;SDS011;45247;47.466;19.004;2023-05-07T12:44:21;1.80;;;1.30;;
59442;SDS011;45247;47.466;19.004;2023-05-07T12:46:50;3.72;;;1.30;;
59442;SDS011;45247;47.466;19.004;2023-05-07T12:49:20;1.98;;;1.50;;
59442;SDS011;45247;47.466;19.004;2023-05-07T12:51:50;1.98;;;1.52;;
59442;SDS011;45247;47.466;19.004;2023-05-07T12:54:28;1.70;;;1.35;;
59442;SDS011;45247;47.466;19.004;2023-05-07T12:57:00;6.30;;;2.03;;
59442;SDS011;45247;47.466;19.004;2023-05-07T12:59:33;2.60;;;1.25;;
59442;SDS011;45247;47.466;19.004;2023-05-07T13:02:02;2.60;;;1.58;;
59442;SDS011;45247;47.466;19.004;2023-05-07T13:04:32;2.17;;;1.40;;
59442;SDS011;45247;47.466;19.004;2023-05-07T13:07:00;6.15;;;2.05;;
59442;SDS011;45247;47.466;19.004;2023-05-07T13:09:29;3.17;;;1.40;;
59442;SDS011;45247;47.466;19.004;2023-05-07T13:11:58;2.13;;;1.63;;
59442;SDS011;45247;47.466;19.004;2023-05-07T13:14:29;3.10;;;1.67;;
59442;SDS011;45247;47.466;19.004;2023-05-07T13:16:57;1.83;;;1.42;;
59442;SDS011;45247;47.466;19.004;2023-05-07T13:19:25;2.00;;;1.42;;
59442;SDS011;45247;47.466;19.004;2023-05-07T13:21:58;4.13;;;1.70;;
59442;SDS011;45247;47.466;19.004;2023-05-07T13:24:26;2.40;;;1.63;;
59442;SDS011;45247;47.466;19.004;2023-05-07T13:26:54;2.80;;;1.50;;
59442;SDS011;45247;47.466;19.004;2023-05-07T13:29:22;2.20;;;1.60;;
59442;SDS011;45247;47.466;19.004;2023-05-07T13:31:55;2.28;;;1.40;;
59442;SDS011;45247;47.466;19.004;2023-05-07T13:34:23;2.15;;;1.40;;
59442;SDS011;45247;47.466;19.004;2023-05-07T13:36:51;2.13;;;1.50;;
59442;SDS011;45247;47.466;19.004;2023-05-07T13:39:21;1.40;;;1.30;;
59442;SDS011;45247;47.466;19.004;2023-05-07T13:41:49;2.53;;;1.40;;
59442;SDS011;45247;47.466;19.004;2023-05-07T13:44:17;1.75;;;1.23;;
59442;SDS011;45247;47.466;19.004;2023-05-07T13:46:45;1.45;;;1.08;;
59442;SDS011;45247;47.466;19.004;2023-05-07T13:49:13;3.33;;;1.40;;
59442;SDS011;45247;47.466;19.004;2023-05-07T13:51:42;2.13;;;1.50;;
59442;SDS011;45247;47.466;19.004;2023-05-07T13:54:13;8.07;;;1.85;;
59442;SDS011;45247;47.466;19.004;2023-05-07T13:56:43;3.75;;;2.30;;
59442;SDS011;45247;47.466;19.004;2023-05-07T13:59:11;3.42;;;2.13;;
59442;SDS011;45247;47.466;19.004;2023-05-07T14:01:40;3.17;;;1.80;;
59442;SDS011;45247;47.466;19.004;2023-05-07T14:04:09;2.90;;;2.10;;
59442;SDS011;45247;47.466;19.004;2023-05-07T14:06:37;1.95;;;1.70;;
59442;SDS011;45247;47.466;19.004;2023-05-07T14:09:05;4.43;;;1.88;;
59442;SDS011;45247;47.466;19.004;2023-05-07T14:11:33;2.58;;;1.60;;
59442;SDS011;45247;47.466;19.004;2023-05-07T14:14:03;2.65;;;1.63;;
59442;SDS011;45247;47.466;19.004;2023-05-07T14:16:31;2.95;;;1.50;;
59442;SDS011;45247;47.466;19.004;2023-05-07T14:18:59;1.85;;;1.52;;
59442;SDS011;45247;47.466;19.004;2023-05-07T14:21:27;3.55;;;1.50;;
59442;SDS011;45247;47.466;19.004;2023-05-07T14:23:57;3.13;;;1.48;;
59442;SDS011;45247;47.466;19.004;2023-05-07T14:26:26;1.92;;;1.20;;
59442;SDS011;45247;47.466;19.004;2023-05-07T14:28:54;2.60;;;1.38;;
59442;SDS011;45247;47.466;19.004;2023-05-07T14:31:26;1.30;;;1.20;;
59442;SDS011;45247;47.466;19.004;2023-05-07T14:33:54;3.33;;;1.88;;
59442;SDS011;45247;47.466;19.004;2023-05-07T14:36:24;3.63;;;1.60;;
59442;SDS011;45247;47.466;19.004;2023-05-07T14:38:53;2.53;;;1.60;;
59442;SDS011;45247;47.466;19.004;2023-05-07T14:41:21;5.38;;;1.63;;
59442;SDS011;45247;47.466;19.004;2023-05-07T14:43:50;3.75;;;1.80;;
59442;SDS011;45247;47.466;19.004;2023-05-07T14:46:18;4.80;;;1.98;;
59442;SDS011;45247;47.466;19.004;2023-05-07T14:48:48;2.60;;;1.98;;
59442;SDS011;45247;47.466;19.004;2023-05-07T14:51:16;4.65;;;2.15;;
59442;SDS011;45247;47.466;19.004;2023-05-07T14:53:44;2.90;;;1.73;;
59442;SDS011;45247;47.466;19.004;2023-05-07T14:56:12;2.53;;;1.73;;
59442;SDS011;45247;47.466;19.004;2023-05-07T14:58:41;3.72;;;2.08;;
59442;SDS011;45247;47.466;19.004;2023-05-07T15:01:09;4.38;;;2.38;;
59442;SDS011;45247;47.466;19.004;2023-05-07T15:03:37;2.65;;;2.00;;
59442;SDS011;45247;47.466;19.004;2023-05-07T15:06:07;2.65;;;1.90;;
59442;SDS011;45247;47.466;19.004;2023-05-07T15:08:35;3.20;;;2.38;;